sensor_id;sensor_type;location;lat;lon;timestamp;P1;durP1;ratioP1;P2;durP2;ratioP2
26634;SDS011;14490;54.208;37.686;2022-07-06T00:00:58;27.63;;;17.48;;
26634;SDS011;14490;54.208;37.686;2022-07-06T00:03:26;28.45;;;17.52;;
26634;SDS011;14490;54.208;37.686;2022-07-06T00:05:53;28.73;;;15.48;;
26634;SDS011;14490;54.208;37.686;2022-07-06T00:08:22;32.20;;;16.75;;
26634;SDS011;14490;54.208;37.686;2022-07-06T00:10:50;31.90;;;17.38;;
26634;SDS011;14490;54.208;37.686;2022-07-06T00:13:17;23.30;;;15.43;;
26634;SDS011;14490;54.208;37.686;2022-07-06T00:15:45;30.77;;;17.50;;
26634;SDS011;14490;54.208;37.686;2022-07-06T00:18:12;28.50;;;17.42;;
26634;SDS011;14490;54.208;37.686;2022-07-06T00:20:40;28.13;;;16.33;;
26634;SDS011;14490;54.208;37.686;2022-07-06T00:23:07;28.67;;;17.40;;
26634;SDS011;14490;54.208;37.686;2022-07-06T00:25:36;28.63;;;17.83;;
26634;SDS011;14490;54.208;37.686;2022-07-06T00:28:04;37.88;;;20.95;;
26634;SDS011;14490;54.208;37.686;2022-07-06T00:30:31;37.05;;;21.15;;
26634;SDS011;14490;54.208;37.686;2022-07-06T00:32:59;47.25;;;21.05;;
26634;SDS011;14490;54.208;37.686;2022-07-06T00:35:26;33.10;;;20.38;;
26634;SDS011;14490;54.208;37.686;2022-07-06T00:37:54;39.70;;;21.05;;
26634;SDS011;14490;54.208;37.686;2022-07-06T00:40:21;37.47;;;21.08;;
26634;SDS011;14490;54.208;37.686;2022-07-06T00:42:50;35.80;;;20.15;;
26634;SDS011;14490;54.208;37.686;2022-07-06T00:45:18;32.10;;;18.48;;
26634;SDS011;14490;54.208;37.686;2022-07-06T00:47:46;36.60;;;18.38;;
26634;SDS011;14490;54.208;37.686;2022-07-06T00:50:14;34.58;;;19.42;;
26634;SDS011;14490;54.208;37.686;2022-07-06T00:52:46;29.17;;;18.73;;
26634;SDS011;14490;54.208;37.686;2022-07-06T00:55:17;26.77;;;15.60;;
26634;SDS011;14490;54.208;37.686;2022-07-06T00:57:47;32.60;;;17.05;;
26634;SDS011;14490;54.208;37.686;2022-07-06T01:00:17;26.15;;;16.00;;
26634;SDS011;14490;54.208;37.686;2022-07-06T01:02:47;25.48;;;16.02;;
26634;SDS011;14490;54.208;37.686;2022-07-06T01:05:15;33.10;;;16.42;;
26634;SDS011;14490;54.208;37.686;2022-07-06T01:07:44;29.75;;;16.70;;
26634;SDS011;14490;54.208;37.686;2022-07-06T01:10:13;33.50;;;16.45;;
26634;SDS011;14490;54.208;37.686;2022-07-06T01:12:43;28.73;;;17.20;;
26634;SDS011;14490;54.208;37.686;2022-07-06T01:15:13;22.23;;;15.73;;
26634;SDS011;14490;54.208;37.686;2022-07-06T01:17:43;23.98;;;16.13;;
26634;SDS011;14490;54.208;37.686;2022-07-06T01:20:13;27.52;;;15.85;;
26634;SDS011;14490;54.208;37.686;2022-07-06T01:22:41;27.63;;;17.05;;
26634;SDS011;14490;54.208;37.686;2022-07-06T01:25:09;25.70;;;15.73;;
26634;SDS011;14490;54.208;37.686;2022-07-06T01:27:38;22.20;;;15.60;;
26634;SDS011;14490;54.208;37.686;2022-07-06T01:30:07;25.20;;;14.77;;
26634;SDS011;14490;54.208;37.686;2022-07-06T01:32:37;24.38;;;16.67;;
26634;SDS011;14490;54.208;37.686;2022-07-06T01:35:06;25.77;;;16.23;;
26634;SDS011;14490;54.208;37.686;2022-07-06T01:41:27;25.83;;;15.98;;
26634;SDS011;14490;54.208;37.686;2022-07-06T01:47:11;23.52;;;16.15;;
26634;SDS011;14490;54.208;37.686;2022-07-06T01:49:38;22.65;;;16.30;;
26634;SDS011;14490;54.208;37.686;2022-07-06T01:52:06;24.23;;;15.75;;
26634;SDS011;14490;54.208;37.686;2022-07-06T01:54:33;22.80;;;15.57;;
26634;SDS011;14490;54.208;37.686;2022-07-06T01:57:03;21.48;;;14.32;;
26634;SDS011;14490;54.208;37.686;2022-07-06T01:59:30;16.67;;;14.25;;
26634;SDS011;14490;54.208;37.686;2022-07-06T02:01:58;19.98;;;15.15;;
26634;SDS011;14490;54.208;37.686;2022-07-06T02:04:26;19.27;;;13.77;;
26634;SDS011;14490;54.208;37.686;2022-07-06T02:06:54;23.50;;;14.35;;
26634;SDS011;14490;54.208;37.686;2022-07-06T02:09:24;22.07;;;14.83;;
26634;SDS011;14490;54.208;37.686;2022-07-06T02:11:52;25.55;;;14.95;;
26634;SDS011;14490;54.208;37.686;2022-07-06T02:14:21;24.23;;;15.57;;
26634;SDS011;14490;54.208;37.686;2022-07-06T02:16:49;16.52;;;14.35;;
26634;SDS011;14490;54.208;37.686;2022-07-06T02:19:16;20.33;;;16.45;;
26634;SDS011;14490;54.208;37.686;2022-07-06T02:21:44;18.90;;;15.43;;
26634;SDS011;14490;54.208;37.686;2022-07-06T02:24:11;19.13;;;15.27;;
26634;SDS011;14490;54.208;37.686;2022-07-06T02:26:44;19.05;;;14.63;;
26634;SDS011;14490;54.208;37.686;2022-07-06T02:29:12;17.42;;;15.18;;
26634;SDS011;14490;54.208;37.686;2022-07-06T02:31:41;17.30;;;15.45;;
26634;SDS011;14490;54.208;37.686;2022-07-06T02:34:08;22.52;;;15.90;;
26634;SDS011;14490;54.208;37.686;2022-07-06T02:36:36;20.00;;;16.20;;
26634;SDS011;14490;54.208;37.686;2022-07-06T02:39:03;20.63;;;15.23;;
26634;SDS011;14490;54.208;37.686;2022-07-06T02:41:34;21.38;;;15.77;;
26634;SDS011;14490;54.208;37.686;2022-07-06T02:44:01;23.67;;;15.73;;
26634;SDS011;14490;54.208;37.686;2022-07-06T02:46:29;19.75;;;16.67;;
26634;SDS011;14490;54.208;37.686;2022-07-06T02:48:58;26.38;;;17.25;;
26634;SDS011;14490;54.208;37.686;2022-07-06T02:51:26;30.90;;;18.27;;
26634;SDS011;14490;54.208;37.686;2022-07-06T02:53:53;29.17;;;17.58;;
26634;SDS011;14490;54.208;37.686;2022-07-06T02:56:24;43.75;;;19.60;;
26634;SDS011;14490;54.208;37.686;2022-07-06T02:58:51;41.87;;;20.37;;
26634;SDS011;14490;54.208;37.686;2022-07-06T03:01:21;29.75;;;20.10;;
26634;SDS011;14490;54.208;37.686;2022-07-06T03:03:49;37.45;;;20.15;;
26634;SDS011;14490;54.208;37.686;2022-07-06T03:06:18;30.15;;;19.92;;
26634;SDS011;14490;54.208;37.686;2022-07-06T03:08:46;48.33;;;22.48;;
26634;SDS011;14490;54.208;37.686;2022-07-06T03:11:13;47.00;;;23.67;;
26634;SDS011;14490;54.208;37.686;2022-07-06T03:13:41;52.45;;;21.85;;
26634;SDS011;14490;54.208;37.686;2022-07-06T03:16:08;46.20;;;21.73;;
26634;SDS011;14490;54.208;37.686;2022-07-06T03:18:36;47.28;;;22.40;;
26634;SDS011;14490;54.208;37.686;2022-07-06T03:21:03;43.22;;;22.13;;
26634;SDS011;14490;54.208;37.686;2022-07-06T03:23:33;51.25;;;21.90;;
26634;SDS011;14490;54.208;37.686;2022-07-06T03:26:00;40.92;;;21.40;;
26634;SDS011;14490;54.208;37.686;2022-07-06T03:28:28;43.38;;;19.80;;
26634;SDS011;14490;54.208;37.686;2022-07-06T03:30:55;46.47;;;18.30;;
26634;SDS011;14490;54.208;37.686;2022-07-06T03:33:23;33.75;;;20.27;;
26634;SDS011;14490;54.208;37.686;2022-07-06T03:35:51;33.25;;;19.15;;
26634;SDS011;14490;54.208;37.686;2022-07-06T03:38:19;38.70;;;18.38;;
26634;SDS011;14490;54.208;37.686;2022-07-06T03:40:48;40.50;;;20.25;;
26634;SDS011;14490;54.208;37.686;2022-07-06T03:43:15;31.52;;;17.15;;
26634;SDS011;14490;54.208;37.686;2022-07-06T03:45:43;40.45;;;18.63;;
26634;SDS011;14490;54.208;37.686;2022-07-06T03:48:11;41.03;;;18.30;;
26634;SDS011;14490;54.208;37.686;2022-07-06T03:50:39;40.75;;;19.95;;
26634;SDS011;14490;54.208;37.686;2022-07-06T03:53:07;40.05;;;18.25;;
26634;SDS011;14490;54.208;37.686;2022-07-06T03:55:34;31.92;;;18.52;;
26634;SDS011;14490;54.208;37.686;2022-07-06T03:58:04;38.65;;;16.98;;
26634;SDS011;14490;54.208;37.686;2022-07-06T04:00:31;37.00;;;16.48;;
26634;SDS011;14490;54.208;37.686;2022-07-06T04:03:00;26.85;;;17.33;;
26634;SDS011;14490;54.208;37.686;2022-07-06T04:05:27;29.65;;;17.15;;
26634;SDS011;14490;54.208;37.686;2022-07-06T04:07:55;26.48;;;14.32;;
26634;SDS011;14490;54.208;37.686;2022-07-06T04:10:22;21.27;;;14.45;;
26634;SDS011;14490;54.208;37.686;2022-07-06T04:12:50;14.98;;;12.43;;
26634;SDS011;14490;54.208;37.686;2022-07-06T04:15:19;21.75;;;14.68;;
26634;SDS011;14490;54.208;37.686;2022-07-06T04:17:49;23.20;;;16.67;;
26634;SDS011;14490;54.208;37.686;2022-07-06T04:20:21;27.35;;;16.63;;
26634;SDS011;14490;54.208;37.686;2022-07-06T04:22:50;19.55;;;14.40;;
26634;SDS011;14490;54.208;37.686;2022-07-06T04:25:18;31.40;;;16.73;;
26634;SDS011;14490;54.208;37.686;2022-07-06T04:27:46;25.85;;;15.35;;
26634;SDS011;14490;54.208;37.686;2022-07-06T04:30:15;17.52;;;11.77;;
26634;SDS011;14490;54.208;37.686;2022-07-06T04:32:44;26.88;;;12.88;;
26634;SDS011;14490;54.208;37.686;2022-07-06T04:35:11;26.13;;;15.95;;
26634;SDS011;14490;54.208;37.686;2022-07-06T04:37:39;23.98;;;14.35;;
26634;SDS011;14490;54.208;37.686;2022-07-06T04:40:11;30.40;;;17.17;;
26634;SDS011;14490;54.208;37.686;2022-07-06T04:42:41;23.27;;;14.60;;
26634;SDS011;14490;54.208;37.686;2022-07-06T04:45:09;30.70;;;17.23;;
26634;SDS011;14490;54.208;37.686;2022-07-06T04:47:44;15.52;;;12.63;;
26634;SDS011;14490;54.208;37.686;2022-07-06T04:50:12;20.90;;;14.65;;
26634;SDS011;14490;54.208;37.686;2022-07-06T04:52:40;28.77;;;16.33;;
26634;SDS011;14490;54.208;37.686;2022-07-06T04:55:07;33.88;;;18.50;;
26634;SDS011;14490;54.208;37.686;2022-07-06T04:57:35;27.88;;;17.15;;
26634;SDS011;14490;54.208;37.686;2022-07-06T05:00:03;26.73;;;16.15;;
26634;SDS011;14490;54.208;37.686;2022-07-06T05:02:32;22.20;;;13.85;;
26634;SDS011;14490;54.208;37.686;2022-07-06T05:05:02;18.35;;;13.77;;
26634;SDS011;14490;54.208;37.686;2022-07-06T05:07:30;18.60;;;13.07;;
26634;SDS011;14490;54.208;37.686;2022-07-06T05:09:59;21.55;;;14.40;;
26634;SDS011;14490;54.208;37.686;2022-07-06T05:12:27;17.02;;;11.38;;
26634;SDS011;14490;54.208;37.686;2022-07-06T05:14:54;17.73;;;12.82;;
26634;SDS011;14490;54.208;37.686;2022-07-06T05:17:22;14.60;;;10.63;;
26634;SDS011;14490;54.208;37.686;2022-07-06T05:19:50;17.65;;;11.10;;
26634;SDS011;14490;54.208;37.686;2022-07-06T05:22:19;22.13;;;14.30;;
26634;SDS011;14490;54.208;37.686;2022-07-06T05:24:47;15.23;;;9.60;;
26634;SDS011;14490;54.208;37.686;2022-07-06T05:27:15;29.67;;;15.52;;
26634;SDS011;14490;54.208;37.686;2022-07-06T05:29:42;19.25;;;14.13;;
26634;SDS011;14490;54.208;37.686;2022-07-06T05:32:10;28.63;;;14.85;;
26634;SDS011;14490;54.208;37.686;2022-07-06T05:34:38;19.00;;;13.25;;
26634;SDS011;14490;54.208;37.686;2022-07-06T05:37:06;20.23;;;12.07;;
26634;SDS011;14490;54.208;37.686;2022-07-06T05:39:35;15.07;;;11.95;;
26634;SDS011;14490;54.208;37.686;2022-07-06T05:42:09;13.70;;;11.88;;
26634;SDS011;14490;54.208;37.686;2022-07-06T05:44:37;20.08;;;11.23;;
26634;SDS011;14490;54.208;37.686;2022-07-06T05:47:05;22.70;;;12.50;;
26634;SDS011;14490;54.208;37.686;2022-07-06T05:49:50;29.08;;;14.45;;
26634;SDS011;14490;54.208;37.686;2022-07-06T05:52:35;18.30;;;13.07;;
26634;SDS011;14490;54.208;37.686;2022-07-06T05:55:05;19.48;;;13.82;;
26634;SDS011;14490;54.208;37.686;2022-07-06T06:00:02;15.60;;;12.27;;
26634;SDS011;14490;54.208;37.686;2022-07-06T06:02:38;15.32;;;12.30;;
26634;SDS011;14490;54.208;37.686;2022-07-06T06:05:09;19.88;;;12.43;;
26634;SDS011;14490;54.208;37.686;2022-07-06T06:07:38;11.15;;;9.48;;
26634;SDS011;14490;54.208;37.686;2022-07-06T06:10:08;12.57;;;11.27;;
26634;SDS011;14490;54.208;37.686;2022-07-06T06:12:38;14.05;;;10.30;;
26634;SDS011;14490;54.208;37.686;2022-07-06T06:15:08;18.83;;;12.45;;
26634;SDS011;14490;54.208;37.686;2022-07-06T06:17:36;10.93;;;9.75;;
26634;SDS011;14490;54.208;37.686;2022-07-06T06:20:08;18.42;;;12.20;;
26634;SDS011;14490;54.208;37.686;2022-07-06T06:22:44;15.63;;;12.67;;
26634;SDS011;14490;54.208;37.686;2022-07-06T06:25:15;12.57;;;9.98;;
26634;SDS011;14490;54.208;37.686;2022-07-06T06:27:45;13.75;;;10.23;;
26634;SDS011;14490;54.208;37.686;2022-07-06T06:30:14;11.23;;;10.20;;
26634;SDS011;14490;54.208;37.686;2022-07-06T06:32:42;11.05;;;8.68;;
26634;SDS011;14490;54.208;37.686;2022-07-06T06:35:26;12.05;;;9.85;;
26634;SDS011;14490;54.208;37.686;2022-07-06T06:37:55;13.55;;;10.50;;
26634;SDS011;14490;54.208;37.686;2022-07-06T06:40:24;16.15;;;11.32;;
26634;SDS011;14490;54.208;37.686;2022-07-06T06:42:51;20.45;;;10.95;;
26634;SDS011;14490;54.208;37.686;2022-07-06T06:45:19;13.25;;;9.82;;
26634;SDS011;14490;54.208;37.686;2022-07-06T06:47:46;18.83;;;11.45;;
26634;SDS011;14490;54.208;37.686;2022-07-06T06:50:14;12.93;;;8.35;;
26634;SDS011;14490;54.208;37.686;2022-07-06T06:52:42;13.05;;;8.50;;
26634;SDS011;14490;54.208;37.686;2022-07-06T06:55:10;15.57;;;7.90;;
26634;SDS011;14490;54.208;37.686;2022-07-06T06:57:48;12.80;;;9.77;;
26634;SDS011;14490;54.208;37.686;2022-07-06T07:00:16;16.63;;;8.73;;
26634;SDS011;14490;54.208;37.686;2022-07-06T07:02:46;8.57;;;7.80;;
26634;SDS011;14490;54.208;37.686;2022-07-06T07:05:13;9.63;;;8.63;;
26634;SDS011;14490;54.208;37.686;2022-07-06T07:07:41;15.43;;;10.23;;
26634;SDS011;14490;54.208;37.686;2022-07-06T07:10:09;9.80;;;8.90;;
26634;SDS011;14490;54.208;37.686;2022-07-06T07:12:42;21.10;;;10.18;;
26634;SDS011;14490;54.208;37.686;2022-07-06T07:15:12;12.18;;;8.63;;
26634;SDS011;14490;54.208;37.686;2022-07-06T07:17:40;10.45;;;8.20;;
26634;SDS011;14490;54.208;37.686;2022-07-06T07:20:12;10.10;;;8.43;;
26634;SDS011;14490;54.208;37.686;2022-07-06T07:22:41;8.85;;;7.97;;
26634;SDS011;14490;54.208;37.686;2022-07-06T07:25:16;12.38;;;9.70;;
26634;SDS011;14490;54.208;37.686;2022-07-06T07:27:44;9.10;;;8.13;;
26634;SDS011;14490;54.208;37.686;2022-07-06T07:30:15;12.18;;;9.85;;
26634;SDS011;14490;54.208;37.686;2022-07-06T07:32:44;16.98;;;12.95;;
26634;SDS011;14490;54.208;37.686;2022-07-06T07:35:11;19.50;;;12.13;;
26634;SDS011;14490;54.208;37.686;2022-07-06T07:37:39;11.02;;;8.80;;
26634;SDS011;14490;54.208;37.686;2022-07-06T07:40:08;11.25;;;8.40;;
26634;SDS011;14490;54.208;37.686;2022-07-06T07:42:37;11.43;;;9.10;;
26634;SDS011;14490;54.208;37.686;2022-07-06T07:45:06;13.15;;;10.20;;
26634;SDS011;14490;54.208;37.686;2022-07-06T07:47:37;17.00;;;12.07;;
26634;SDS011;14490;54.208;37.686;2022-07-06T07:50:06;27.52;;;9.95;;
26634;SDS011;14490;54.208;37.686;2022-07-06T07:52:45;11.57;;;10.32;;
26634;SDS011;14490;54.208;37.686;2022-07-06T07:55:19;12.10;;;8.85;;
26634;SDS011;14490;54.208;37.686;2022-07-06T07:57:47;13.98;;;9.95;;
26634;SDS011;14490;54.208;37.686;2022-07-06T08:00:24;10.93;;;9.93;;
26634;SDS011;14490;54.208;37.686;2022-07-06T08:05:30;9.10;;;6.53;;
26634;SDS011;14490;54.208;37.686;2022-07-06T08:08:00;8.93;;;6.95;;
26634;SDS011;14490;54.208;37.686;2022-07-06T08:10:28;8.65;;;7.40;;
26634;SDS011;14490;54.208;37.686;2022-07-06T08:12:56;8.05;;;7.47;;
26634;SDS011;14490;54.208;37.686;2022-07-06T08:15:24;7.38;;;6.82;;
26634;SDS011;14490;54.208;37.686;2022-07-06T08:17:59;8.73;;;7.45;;
26634;SDS011;14490;54.208;37.686;2022-07-06T08:20:29;8.13;;;7.32;;
26634;SDS011;14490;54.208;37.686;2022-07-06T08:22:57;7.32;;;6.63;;
26634;SDS011;14490;54.208;37.686;2022-07-06T08:25:25;8.75;;;7.78;;
26634;SDS011;14490;54.208;37.686;2022-07-06T08:27:55;8.18;;;5.88;;
26634;SDS011;14490;54.208;37.686;2022-07-06T08:30:23;9.82;;;6.53;;
26634;SDS011;14490;54.208;37.686;2022-07-06T08:32:52;7.43;;;6.72;;
26634;SDS011;14490;54.208;37.686;2022-07-06T08:35:20;7.13;;;6.50;;
26634;SDS011;14490;54.208;37.686;2022-07-06T08:37:52;8.10;;;7.47;;
26634;SDS011;14490;54.208;37.686;2022-07-06T08:40:25;6.68;;;6.10;;
26634;SDS011;14490;54.208;37.686;2022-07-06T08:43:09;7.10;;;6.57;;
26634;SDS011;14490;54.208;37.686;2022-07-06T08:45:39;6.68;;;6.18;;
26634;SDS011;14490;54.208;37.686;2022-07-06T08:48:08;8.02;;;7.32;;
26634;SDS011;14490;54.208;37.686;2022-07-06T08:50:37;8.32;;;7.45;;
26634;SDS011;14490;54.208;37.686;2022-07-06T08:53:09;10.35;;;7.40;;
26634;SDS011;14490;54.208;37.686;2022-07-06T08:55:40;7.07;;;6.57;;
26634;SDS011;14490;54.208;37.686;2022-07-06T08:58:07;6.28;;;5.78;;
26634;SDS011;14490;54.208;37.686;2022-07-06T09:00:36;7.28;;;6.40;;
26634;SDS011;14490;54.208;37.686;2022-07-06T09:03:04;6.10;;;5.65;;
26634;SDS011;14490;54.208;37.686;2022-07-06T09:05:33;7.05;;;6.50;;
26634;SDS011;14490;54.208;37.686;2022-07-06T09:08:02;7.22;;;6.15;;
26634;SDS011;14490;54.208;37.686;2022-07-06T09:10:33;6.20;;;5.80;;
26634;SDS011;14490;54.208;37.686;2022-07-06T09:13:02;6.88;;;5.55;;
26634;SDS011;14490;54.208;37.686;2022-07-06T09:15:31;7.10;;;6.53;;
26634;SDS011;14490;54.208;37.686;2022-07-06T09:18:01;5.40;;;5.00;;
26634;SDS011;14490;54.208;37.686;2022-07-06T09:20:32;7.20;;;6.50;;
26634;SDS011;14490;54.208;37.686;2022-07-06T09:23:00;11.07;;;9.98;;
26634;SDS011;14490;54.208;37.686;2022-07-06T09:25:33;6.88;;;6.28;;
26634;SDS011;14490;54.208;37.686;2022-07-06T09:30:31;10.35;;;7.45;;
26634;SDS011;14490;54.208;37.686;2022-07-06T09:33:05;6.38;;;5.78;;
26634;SDS011;14490;54.208;37.686;2022-07-06T09:35:38;5.57;;;5.18;;
26634;SDS011;14490;54.208;37.686;2022-07-06T09:38:07;6.20;;;5.70;;
26634;SDS011;14490;54.208;37.686;2022-07-06T09:40:39;8.63;;;6.05;;
26634;SDS011;14490;54.208;37.686;2022-07-06T09:43:11;7.38;;;6.88;;
26634;SDS011;14490;54.208;37.686;2022-07-06T09:45:43;8.18;;;6.55;;
26634;SDS011;14490;54.208;37.686;2022-07-06T09:48:13;6.47;;;6.07;;
26634;SDS011;14490;54.208;37.686;2022-07-06T09:50:46;6.35;;;5.50;;
26634;SDS011;14490;54.208;37.686;2022-07-06T09:53:18;6.82;;;6.22;;
26634;SDS011;14490;54.208;37.686;2022-07-06T09:55:49;5.90;;;5.50;;
26634;SDS011;14490;54.208;37.686;2022-07-06T09:58:19;8.15;;;5.78;;
26634;SDS011;14490;54.208;37.686;2022-07-06T10:00:48;6.82;;;6.30;;
26634;SDS011;14490;54.208;37.686;2022-07-06T10:03:16;6.80;;;6.30;;
26634;SDS011;14490;54.208;37.686;2022-07-06T10:05:45;7.95;;;5.68;;
26634;SDS011;14490;54.208;37.686;2022-07-06T10:08:15;14.20;;;6.93;;
26634;SDS011;14490;54.208;37.686;2022-07-06T10:10:44;7.70;;;6.82;;
26634;SDS011;14490;54.208;37.686;2022-07-06T10:13:16;10.65;;;6.50;;
26634;SDS011;14490;54.208;37.686;2022-07-06T10:15:50;7.20;;;6.05;;
26634;SDS011;14490;54.208;37.686;2022-07-06T10:18:58;7.07;;;6.60;;
26634;SDS011;14490;54.208;37.686;2022-07-06T10:21:29;5.60;;;5.15;;
26634;SDS011;14490;54.208;37.686;2022-07-06T10:23:57;10.15;;;7.28;;
26634;SDS011;14490;54.208;37.686;2022-07-06T10:26:31;5.65;;;5.15;;
26634;SDS011;14490;54.208;37.686;2022-07-06T10:29:00;7.07;;;6.57;;
26634;SDS011;14490;54.208;37.686;2022-07-06T10:31:29;6.72;;;6.00;;
26634;SDS011;14490;54.208;37.686;2022-07-06T10:34:02;6.55;;;5.10;;
26634;SDS011;14490;54.208;37.686;2022-07-06T10:36:36;7.22;;;6.57;;
26634;SDS011;14490;54.208;37.686;2022-07-06T10:39:04;7.63;;;6.95;;
26634;SDS011;14490;54.208;37.686;2022-07-06T10:41:46;7.50;;;6.93;;
26634;SDS011;14490;54.208;37.686;2022-07-06T10:44:15;8.07;;;7.45;;
26634;SDS011;14490;54.208;37.686;2022-07-06T10:46:49;7.43;;;6.65;;
26634;SDS011;14490;54.208;37.686;2022-07-06T10:49:21;7.65;;;6.95;;
26634;SDS011;14490;54.208;37.686;2022-07-06T10:51:50;6.40;;;5.75;;
26634;SDS011;14490;54.208;37.686;2022-07-06T10:54:19;9.20;;;7.40;;
26634;SDS011;14490;54.208;37.686;2022-07-06T10:56:48;8.25;;;5.95;;
26634;SDS011;14490;54.208;37.686;2022-07-06T10:59:17;6.05;;;5.43;;
26634;SDS011;14490;54.208;37.686;2022-07-06T11:04:43;9.75;;;6.85;;
26634;SDS011;14490;54.208;37.686;2022-07-06T11:07:13;9.32;;;7.05;;
26634;SDS011;14490;54.208;37.686;2022-07-06T11:09:53;10.07;;;7.00;;
26634;SDS011;14490;54.208;37.686;2022-07-06T11:12:25;5.97;;;5.53;;
26634;SDS011;14490;54.208;37.686;2022-07-06T11:14:54;8.10;;;5.72;;
26634;SDS011;14490;54.208;37.686;2022-07-06T11:17:30;6.28;;;5.78;;
26634;SDS011;14490;54.208;37.686;2022-07-06T11:20:10;8.38;;;7.53;;
26634;SDS011;14490;54.208;37.686;2022-07-06T11:22:49;10.30;;;6.57;;
26634;SDS011;14490;54.208;37.686;2022-07-06T11:25:17;7.38;;;6.63;;
26634;SDS011;14490;54.208;37.686;2022-07-06T11:27:46;12.63;;;5.60;;
26634;SDS011;14490;54.208;37.686;2022-07-06T11:30:14;13.10;;;6.05;;
26634;SDS011;14490;54.208;37.686;2022-07-06T11:32:45;5.93;;;5.45;;
26634;SDS011;14490;54.208;37.686;2022-07-06T11:35:20;10.15;;;6.47;;
26634;SDS011;14490;54.208;37.686;2022-07-06T11:37:48;6.50;;;6.00;;
26634;SDS011;14490;54.208;37.686;2022-07-06T11:40:17;6.47;;;5.80;;
26634;SDS011;14490;54.208;37.686;2022-07-06T11:42:52;7.57;;;5.80;;
26634;SDS011;14490;54.208;37.686;2022-07-06T11:45:25;6.40;;;5.80;;
26634;SDS011;14490;54.208;37.686;2022-07-06T11:50:41;7.38;;;6.32;;
26634;SDS011;14490;54.208;37.686;2022-07-06T11:53:13;9.20;;;6.22;;
26634;SDS011;14490;54.208;37.686;2022-07-06T11:55:41;7.38;;;6.60;;
26634;SDS011;14490;54.208;37.686;2022-07-06T11:58:11;7.30;;;6.57;;
26634;SDS011;14490;54.208;37.686;2022-07-06T12:01:05;6.60;;;6.00;;
26634;SDS011;14490;54.208;37.686;2022-07-06T12:03:50;11.88;;;6.32;;
26634;SDS011;14490;54.208;37.686;2022-07-06T12:06:22;7.30;;;5.77;;
26634;SDS011;14490;54.208;37.686;2022-07-06T12:08:52;6.72;;;6.15;;
26634;SDS011;14490;54.208;37.686;2022-07-06T12:11:25;6.80;;;6.30;;
26634;SDS011;14490;54.208;37.686;2022-07-06T12:13:56;9.27;;;5.85;;
26634;SDS011;14490;54.208;37.686;2022-07-06T12:16:30;8.07;;;5.50;;
26634;SDS011;14490;54.208;37.686;2022-07-06T12:21:37;9.20;;;5.60;;
26634;SDS011;14490;54.208;37.686;2022-07-06T12:24:16;9.00;;;7.03;;
26634;SDS011;14490;54.208;37.686;2022-07-06T12:26:49;7.05;;;5.88;;
26634;SDS011;14490;54.208;37.686;2022-07-06T12:29:38;7.60;;;6.10;;
26634;SDS011;14490;54.208;37.686;2022-07-06T12:32:13;9.48;;;6.18;;
26634;SDS011;14490;54.208;37.686;2022-07-06T12:34:42;10.30;;;6.43;;
26634;SDS011;14490;54.208;37.686;2022-07-06T12:39:52;6.53;;;5.93;;
26634;SDS011;14490;54.208;37.686;2022-07-06T12:42:22;8.80;;;6.70;;
26634;SDS011;14490;54.208;37.686;2022-07-06T12:45:05;8.05;;;6.38;;
26634;SDS011;14490;54.208;37.686;2022-07-06T13:00:32;9.38;;;7.15;;
26634;SDS011;14490;54.208;37.686;2022-07-06T13:05:51;6.63;;;6.03;;
26634;SDS011;14490;54.208;37.686;2022-07-06T13:08:20;8.20;;;6.45;;
26634;SDS011;14490;54.208;37.686;2022-07-06T13:13:24;6.95;;;6.20;;
26634;SDS011;14490;54.208;37.686;2022-07-06T13:16:10;8.85;;;7.40;;
26634;SDS011;14490;54.208;37.686;2022-07-06T13:18:39;11.57;;;5.75;;
26634;SDS011;14490;54.208;37.686;2022-07-06T13:21:07;8.35;;;6.32;;
26634;SDS011;14490;54.208;37.686;2022-07-06T13:23:36;7.85;;;7.07;;
26634;SDS011;14490;54.208;37.686;2022-07-06T13:26:06;8.23;;;6.25;;
26634;SDS011;14490;54.208;37.686;2022-07-06T13:28:36;12.18;;;6.30;;
26634;SDS011;14490;54.208;37.686;2022-07-06T13:31:07;10.02;;;6.00;;
26634;SDS011;14490;54.208;37.686;2022-07-06T13:33:37;6.80;;;5.20;;
26634;SDS011;14490;54.208;37.686;2022-07-06T13:36:07;9.20;;;5.93;;
26634;SDS011;14490;54.208;37.686;2022-07-06T13:38:54;8.70;;;6.70;;
26634;SDS011;14490;54.208;37.686;2022-07-06T13:41:23;9.05;;;6.18;;
26634;SDS011;14490;54.208;37.686;2022-07-06T13:43:52;10.88;;;6.65;;
26634;SDS011;14490;54.208;37.686;2022-07-06T13:46:30;6.40;;;5.80;;
26634;SDS011;14490;54.208;37.686;2022-07-06T13:48:59;8.30;;;6.82;;
26634;SDS011;14490;54.208;37.686;2022-07-06T13:51:28;6.78;;;6.28;;
26634;SDS011;14490;54.208;37.686;2022-07-06T13:54:00;6.22;;;5.63;;
26634;SDS011;14490;54.208;37.686;2022-07-06T13:56:30;6.63;;;6.13;;
26634;SDS011;14490;54.208;37.686;2022-07-06T13:59:03;6.68;;;6.07;;
26634;SDS011;14490;54.208;37.686;2022-07-06T14:01:35;7.47;;;5.53;;
26634;SDS011;14490;54.208;37.686;2022-07-06T14:04:03;5.63;;;4.80;;
26634;SDS011;14490;54.208;37.686;2022-07-06T14:06:32;5.72;;;5.22;;
26634;SDS011;14490;54.208;37.686;2022-07-06T14:09:00;10.82;;;6.55;;
26634;SDS011;14490;54.208;37.686;2022-07-06T14:11:30;13.60;;;5.93;;
26634;SDS011;14490;54.208;37.686;2022-07-06T14:13:58;34.33;;;6.72;;
26634;SDS011;14490;54.208;37.686;2022-07-06T14:16:27;6.10;;;5.00;;
26634;SDS011;14490;54.208;37.686;2022-07-06T14:19:01;9.43;;;4.75;;
26634;SDS011;14490;54.208;37.686;2022-07-06T14:21:32;7.45;;;4.53;;
26634;SDS011;14490;54.208;37.686;2022-07-06T14:26:36;5.78;;;5.18;;
26634;SDS011;14490;54.208;37.686;2022-07-06T14:29:06;5.78;;;4.90;;
26634;SDS011;14490;54.208;37.686;2022-07-06T14:31:34;5.70;;;5.03;;
26634;SDS011;14490;54.208;37.686;2022-07-06T14:34:08;4.88;;;4.40;;
26634;SDS011;14490;54.208;37.686;2022-07-06T14:36:37;6.78;;;3.88;;
26634;SDS011;14490;54.208;37.686;2022-07-06T14:44:19;5.65;;;3.90;;
26634;SDS011;14490;54.208;37.686;2022-07-06T14:46:47;4.85;;;4.35;;
26634;SDS011;14490;54.208;37.686;2022-07-06T14:52:03;7.47;;;4.00;;
26634;SDS011;14490;54.208;37.686;2022-07-06T14:54:36;6.20;;;5.00;;
26634;SDS011;14490;54.208;37.686;2022-07-06T14:57:12;4.28;;;3.88;;
26634;SDS011;14490;54.208;37.686;2022-07-06T14:59:41;6.82;;;4.80;;
26634;SDS011;14490;54.208;37.686;2022-07-06T15:02:22;5.43;;;4.87;;
26634;SDS011;14490;54.208;37.686;2022-07-06T15:20:48;10.02;;;5.80;;
26634;SDS011;14490;54.208;37.686;2022-07-06T15:25:51;5.80;;;4.93;;
26634;SDS011;14490;54.208;37.686;2022-07-06T15:36:07;6.97;;;4.82;;
26634;SDS011;14490;54.208;37.686;2022-07-06T15:38:36;10.73;;;5.80;;
26634;SDS011;14490;54.208;37.686;2022-07-06T15:41:21;6.07;;;5.45;;
26634;SDS011;14490;54.208;37.686;2022-07-06T15:44:04;5.15;;;4.55;;
26634;SDS011;14490;54.208;37.686;2022-07-06T15:46:36;9.98;;;5.10;;
26634;SDS011;14490;54.208;37.686;2022-07-06T15:51:43;6.43;;;5.20;;
26634;SDS011;14490;54.208;37.686;2022-07-06T15:56:47;14.13;;;5.47;;
26634;SDS011;14490;54.208;37.686;2022-07-06T15:59:18;9.65;;;5.90;;
26634;SDS011;14490;54.208;37.686;2022-07-06T16:01:50;8.75;;;6.30;;
26634;SDS011;14490;54.208;37.686;2022-07-06T16:04:20;7.18;;;5.50;;